createdAt,value
2023-05-04T00:01:41.223Z,96104.00
2023-05-04T00:05:43.994Z,96113.00
2023-05-04T00:09:46.818Z,96104.00
2023-05-04T00:13:49.628Z,96097.00
2023-05-04T00:17:54.855Z,96099.00
2023-05-04T00:21:57.683Z,96095.00
2023-05-04T00:26:00.776Z,96088.00
2023-05-04T00:30:03.997Z,96083.00
2023-05-04T00:34:20.052Z,96088.00
2023-05-04T00:38:22.831Z,96072.00
2023-05-04T00:42:25.665Z,96075.00
2023-05-04T00:46:30.478Z,96079.00
2023-05-04T00:50:35.908Z,96078.00
2023-05-04T00:54:39.148Z,96075.00
2023-05-04T00:58:42.058Z,96075.00
2023-05-04T01:02:44.978Z,96068.00
2023-05-04T01:06:58.271Z,96074.00
2023-05-04T01:11:08.487Z,96068.00
2023-05-04T01:15:13.145Z,96067.00
2023-05-04T01:19:16.479Z,96069.00
2023-05-04T01:23:20.861Z,96075.00
2023-05-04T01:27:27.390Z,96068.00
2023-05-04T01:31:31.294Z,96072.00
2023-05-04T01:35:34.559Z,96065.00
2023-05-04T01:39:38.752Z,96063.00
2023-05-04T01:43:41.680Z,96066.00
2023-05-04T01:47:44.782Z,96071.00
2023-05-04T01:51:49.436Z,96058.00
2023-05-04T01:55:53.695Z,96055.00
2023-05-04T01:59:56.516Z,96057.00
2023-05-04T02:04:00.918Z,96060.00
2023-05-04T02:08:04.105Z,96062.00
2023-05-04T02:12:10.661Z,96063.00
2023-05-04T02:16:13.584Z,96052.00
2023-05-04T02:20:16.484Z,96046.00
2023-05-04T02:24:21.903Z,96047.00
2023-05-04T02:28:26.121Z,96057.00
2023-05-04T02:32:31.230Z,96047.00
2023-05-04T02:36:34.063Z,96042.00
2023-05-04T02:40:36.838Z,96046.00
2023-05-04T02:44:41.874Z,96051.00
2023-05-04T02:48:45.045Z,96044.00
2023-05-04T02:52:48.054Z,96048.00
2023-05-04T02:56:50.870Z,96048.00
2023-05-04T03:00:57.391Z,96054.00
2023-05-04T03:05:00.205Z,96049.00
2023-05-04T03:09:03.131Z,96044.00
2023-05-04T03:13:06.229Z,96042.00
2023-05-04T03:17:10.584Z,96036.00
2023-05-04T03:21:13.476Z,96039.00
2023-05-04T03:25:16.804Z,96033.00
2023-05-04T03:29:19.696Z,96039.00
2023-05-04T03:33:25.795Z,96037.00
2023-05-04T03:37:31.206Z,96031.00
2023-05-04T03:41:34.056Z,96031.00
2023-05-04T03:45:37.075Z,96026.00
2023-05-04T03:49:41.323Z,96027.00
2023-05-04T03:53:45.006Z,96031.00
2023-05-04T03:57:55.131Z,96024.00
2023-05-04T04:01:59.932Z,96028.00
2023-05-04T04:06:04.574Z,96027.00
2023-05-04T04:10:08.777Z,96027.00
2023-05-04T04:14:12.696Z,96027.00
2023-05-04T04:18:15.478Z,96031.00
2023-05-04T04:22:19.590Z,96023.00
2023-05-04T04:26:22.561Z,96022.00
2023-05-04T04:30:26.430Z,96032.00
2023-05-04T04:34:29.189Z,96037.00
2023-05-04T04:38:33.309Z,96032.00
2023-05-04T04:42:36.109Z,96035.00
2023-05-04T04:46:38.983Z,96033.00
2023-05-04T04:50:41.816Z,96034.00
2023-05-04T04:54:46.582Z,96041.00
2023-05-04T04:58:49.321Z,96044.00
2023-05-04T05:02:52.035Z,96054.00
2023-05-04T05:06:55.066Z,96053.00
2023-05-04T05:10:59.193Z,96049.00
2023-05-04T05:15:04.237Z,96053.00
2023-05-04T05:19:06.946Z,96048.00
2023-05-04T05:23:09.675Z,96046.00
2023-05-04T05:27:13.793Z,96047.00
2023-05-04T05:31:16.597Z,96044.00
2023-05-04T05:35:19.452Z,96055.00
2023-05-04T05:39:22.256Z,96052.00
2023-05-04T05:43:26.959Z,96063.00
2023-05-04T05:47:29.700Z,96059.00
2023-05-04T05:51:32.492Z,96069.00
2023-05-04T05:55:35.356Z,96051.00
2023-05-04T05:59:40.571Z,96065.00
2023-05-04T06:03:43.511Z,96068.00
2023-05-04T06:07:46.323Z,96063.00
2023-05-04T06:11:49.093Z,96063.00
2023-05-04T06:15:53.803Z,96063.00
2023-05-04T06:19:56.760Z,96063.00
2023-05-04T06:23:59.576Z,96048.00
2023-05-04T06:28:02.404Z,96050.00
2023-05-04T06:32:07.135Z,96051.00
2023-05-04T06:36:10.396Z,96053.00
2023-05-04T06:40:14.088Z,96055.00
2023-05-04T06:44:17.683Z,96046.00
2023-05-04T06:48:22.818Z,96051.00
2023-05-04T06:52:25.600Z,96058.00
2023-05-04T06:56:28.361Z,96046.00
2023-05-04T07:00:31.522Z,96053.00
2023-05-04T07:04:35.746Z,96051.00
2023-05-04T07:08:38.582Z,96056.00
2023-05-04T07:12:41.391Z,96069.00
2023-05-04T07:16:44.270Z,96065.00
2023-05-04T07:20:48.441Z,96068.00
2023-05-04T07:24:51.365Z,96061.00
2023-05-04T07:28:54.188Z,96057.00
2023-05-04T07:32:56.971Z,96060.00
2023-05-04T07:37:01.115Z,96067.00
2023-05-04T07:41:03.939Z,96056.00
2023-05-04T07:45:08.421Z,96062.00
2023-05-04T07:49:11.174Z,96062.00
2023-05-04T07:53:15.291Z,96049.00
2023-05-04T07:57:18.061Z,96045.00
2023-05-04T08:01:20.844Z,96053.00
2023-05-04T08:05:23.615Z,96049.00
2023-05-04T08:09:27.853Z,96039.00
2023-05-04T08:13:30.636Z,96048.00
2023-05-04T08:17:34.860Z,96046.00
2023-05-04T08:21:37.786Z,96044.00
2023-05-04T08:25:42.002Z,96042.00
2023-05-04T08:29:44.847Z,96054.00
2023-05-04T08:33:47.671Z,96037.00
2023-05-04T08:37:50.516Z,96043.00
2023-05-04T08:41:54.773Z,96044.00
2023-05-04T08:45:58.066Z,96050.00
2023-05-04T08:50:01.103Z,96045.00
2023-05-04T08:54:07.162Z,96046.00
2023-05-04T08:58:13.748Z,96052.00
2023-05-04T09:02:20.737Z,96043.00
2023-05-04T09:06:23.903Z,96035.00
2023-05-04T09:10:29.392Z,96042.00
2023-05-04T09:14:37.390Z,96040.00
2023-05-04T09:18:41.143Z,96028.00
2023-05-04T09:22:43.972Z,96028.00
2023-05-04T09:26:47.119Z,96029.00
2023-05-04T09:30:51.631Z,96030.00
2023-05-04T09:34:55.225Z,96028.00
2023-05-04T09:38:58.019Z,96029.00
2023-05-04T09:43:01.147Z,96021.00
2023-05-04T09:47:05.805Z,96019.00
2023-05-04T09:51:08.764Z,96011.00
2023-05-04T09:55:13.668Z,96018.00
2023-05-04T09:59:17.272Z,96020.00
2023-05-04T10:03:22.162Z,96008.00
2023-05-04T10:07:26.040Z,96006.00
2023-05-04T10:11:30.444Z,96007.00
2023-05-04T10:15:34.045Z,96002.00
2023-05-04T10:19:50.957Z,96007.00
2023-05-04T10:24:15.717Z,95995.00
2023-05-04T10:28:28.992Z,95998.00
2023-05-04T10:32:38.564Z,95983.00
2023-05-04T10:36:42.778Z,95996.00
2023-05-04T10:40:48.926Z,95994.00
2023-05-04T10:44:52.650Z,95991.00
2023-05-04T10:48:55.526Z,95999.00
2023-05-04T10:53:00.133Z,95985.00
2023-05-04T10:57:07.752Z,95975.00
2023-05-04T11:01:13.021Z,95984.00
2023-05-04T11:05:20.322Z,95978.00
2023-05-04T11:09:25.551Z,95973.00
2023-05-04T11:13:30.166Z,95972.00
2023-05-04T11:17:33.168Z,95961.00
2023-05-04T11:21:36.014Z,95965.00
2023-05-04T11:25:40.297Z,95953.00
2023-05-04T11:29:54.368Z,95954.00
2023-05-04T11:33:57.228Z,95949.00
2023-05-04T11:38:00.112Z,95940.00
2023-05-04T11:42:09.055Z,95948.00
2023-05-04T11:46:12.704Z,95931.00
2023-05-04T11:50:17.230Z,95925.00
2023-05-04T11:54:23.268Z,95920.00
2023-05-04T11:58:28.072Z,95919.00
2023-05-04T12:02:30.982Z,95906.00
2023-05-04T12:06:34.581Z,95916.00
2023-05-04T12:10:37.430Z,95909.00
2023-05-04T12:14:50.371Z,95910.00
2023-05-04T12:19:03.198Z,95904.00
2023-05-04T12:23:08.472Z,95903.00
2023-05-04T12:27:14.612Z,95910.00
2023-05-04T12:31:19.153Z,95915.00
2023-05-04T12:35:22.129Z,95920.00
2023-05-04T12:39:25.192Z,95917.00
2023-05-04T12:43:28.029Z,95914.00
2023-05-04T12:47:32.224Z,95913.00
2023-05-04T12:51:35.121Z,95916.00
2023-05-04T12:55:39.456Z,95909.00
2023-05-04T12:59:42.302Z,95901.00
2023-05-04T13:03:46.659Z,95907.00
2023-05-04T13:07:49.525Z,95898.00
2023-05-04T13:11:52.339Z,95907.00
2023-05-04T13:15:55.542Z,95889.00
2023-05-04T13:19:59.723Z,95878.00
2023-05-04T13:24:02.526Z,95884.00
2023-05-04T13:28:05.385Z,95876.00
2023-05-04T13:32:08.317Z,95888.00
2023-05-04T13:36:12.526Z,95880.00
2023-05-04T13:40:15.513Z,95863.00
2023-05-04T13:44:18.413Z,95857.00
2023-05-04T13:48:21.306Z,95853.00
2023-05-04T13:52:25.593Z,95852.00
2023-05-04T13:56:28.433Z,95848.00
2023-05-04T14:00:31.288Z,95846.00
2023-05-04T14:04:34.460Z,95839.00
2023-05-04T14:08:39.517Z,95843.00
2023-05-04T14:12:42.414Z,95842.00
2023-05-04T14:16:45.300Z,95843.00
2023-05-04T14:20:49.684Z,95836.00
2023-05-04T14:24:53.884Z,95837.00
2023-05-04T14:28:56.768Z,95839.00
2023-05-04T14:32:59.605Z,95831.00
2023-05-04T14:37:02.507Z,95831.00
2023-05-04T14:41:07.689Z,95825.00
2023-05-04T14:45:11.777Z,95827.00
2023-05-04T14:49:24.592Z,95831.00
2023-05-04T14:53:39.253Z,95826.00
2023-05-04T14:57:43.984Z,95817.00
2023-05-04T15:01:47.018Z,95821.00
2023-05-04T15:05:49.951Z,95813.00
2023-05-04T15:09:52.756Z,95820.00
2023-05-04T15:13:58.818Z,95820.00
2023-05-04T15:18:01.745Z,95816.00
2023-05-04T15:22:05.031Z,95810.00
2023-05-04T15:26:07.847Z,95800.00
2023-05-04T15:30:12.932Z,95795.00
2023-05-04T15:34:18.348Z,95800.00
2023-05-04T15:38:22.051Z,95803.00
2023-05-04T15:42:24.869Z,95800.00
2023-05-04T15:46:29.464Z,95806.00
2023-05-04T15:50:33.176Z,95795.00
2023-05-04T15:54:36.249Z,95801.00
2023-05-04T15:58:39.077Z,95803.00
2023-05-04T16:02:43.319Z,95791.00
2023-05-04T16:06:46.293Z,95793.00
2023-05-04T16:10:49.137Z,95796.00
2023-05-04T16:14:52.060Z,95785.00
2023-05-04T16:18:56.240Z,95784.00
2023-05-04T16:22:59.166Z,95771.00
2023-05-04T16:27:01.950Z,95776.00
2023-05-04T16:31:05.954Z,95766.00
2023-05-04T16:35:10.754Z,95765.00
2023-05-04T16:39:13.671Z,95774.00
2023-05-04T16:43:16.533Z,95766.00
2023-05-04T16:47:20.323Z,95763.00
2023-05-04T16:51:24.503Z,95763.00
2023-05-04T16:55:27.560Z,95768.00
2023-05-04T16:59:30.427Z,95755.00
2023-05-04T17:03:33.341Z,95760.00
2023-05-04T17:07:38.011Z,95755.00
2023-05-04T17:11:40.897Z,95758.00
2023-05-04T17:15:43.794Z,95762.00
2023-05-04T17:19:46.723Z,95752.00
2023-05-04T17:23:50.879Z,95753.00
2023-05-04T17:27:53.787Z,95759.00
2023-05-04T17:31:56.713Z,95757.00
2023-05-04T17:35:59.508Z,95757.00
2023-05-04T17:40:04.021Z,95755.00
2023-05-04T17:44:06.843Z,95757.00
2023-05-04T17:48:09.765Z,95761.00
2023-05-04T17:52:13.665Z,95767.00
2023-05-04T17:56:19.582Z,95764.00
2023-05-04T18:00:22.728Z,95764.00
2023-05-04T18:04:25.585Z,95771.00
2023-05-04T18:08:28.393Z,95766.00
2023-05-04T18:12:33.299Z,95771.00
2023-05-04T18:16:39.176Z,95780.00
2023-05-04T18:20:42.018Z,95787.00
2023-05-04T18:24:47.699Z,95784.00
2023-05-04T18:28:51.828Z,95781.00
2023-05-04T18:32:54.641Z,95785.00
2023-05-04T18:36:57.444Z,95785.00
2023-05-04T18:41:00.318Z,95786.00
2023-05-04T18:45:04.876Z,95802.00
2023-05-04T18:49:07.688Z,95808.00
2023-05-04T18:53:10.840Z,95801.00
2023-05-04T18:57:14.252Z,95816.00
2023-05-04T19:01:18.532Z,95811.00
2023-05-04T19:05:21.338Z,95818.00
2023-05-04T19:09:24.215Z,95828.00
2023-05-04T19:13:27.286Z,95823.00
2023-05-04T19:17:31.676Z,95840.00
2023-05-04T19:21:34.578Z,95832.00
2023-05-04T19:25:37.410Z,95825.00
2023-05-04T19:29:40.269Z,95842.00
2023-05-04T19:33:48.699Z,95832.00
2023-05-04T19:37:51.768Z,95830.00
2023-05-04T19:41:54.523Z,95827.00
2023-05-04T19:45:57.445Z,95834.00
2023-05-04T19:50:01.806Z,95835.00
2023-05-04T19:54:04.611Z,95842.00
2023-05-04T19:58:07.476Z,95835.00
2023-05-04T20:02:10.329Z,95835.00
2023-05-04T20:06:14.748Z,95834.00
2023-05-04T20:10:17.595Z,95830.00
2023-05-04T20:14:20.400Z,95840.00
2023-05-04T20:18:23.348Z,95832.00
2023-05-04T20:22:27.619Z,95829.00
2023-05-04T20:26:30.759Z,95818.00
2023-05-04T20:30:33.579Z,95830.00
2023-05-04T20:34:38.594Z,95825.00
2023-05-04T20:38:42.830Z,95828.00
2023-05-04T20:42:45.655Z,95831.00
2023-05-04T20:46:48.435Z,95819.00
2023-05-04T20:50:53.168Z,95828.00
2023-05-04T20:55:01.381Z,95828.00
2023-05-04T20:59:04.302Z,95831.00
2023-05-04T21:03:07.168Z,95823.00
2023-05-04T21:07:10.135Z,95827.00
2023-05-04T21:11:14.469Z,95828.00
2023-05-04T21:15:17.484Z,95824.00
2023-05-04T21:19:20.597Z,95833.00
2023-05-04T21:23:24.916Z,95826.00
2023-05-04T21:27:29.112Z,95815.00
2023-05-04T21:31:33.177Z,95816.00
2023-05-04T21:35:36.031Z,95821.00
2023-05-04T21:39:38.852Z,95806.00
2023-05-04T21:43:43.711Z,95804.00
2023-05-04T21:47:46.726Z,95809.00
2023-05-04T21:51:49.531Z,95805.00
2023-05-04T21:55:52.414Z,95809.00
2023-05-04T21:59:56.531Z,95795.00
2023-05-04T22:03:59.354Z,95797.00
2023-05-04T22:08:02.140Z,95794.00
2023-05-04T22:12:05.546Z,95786.00
2023-05-04T22:16:10.463Z,95802.00
2023-05-04T22:20:14.213Z,95795.00
2023-05-04T22:24:17.422Z,95786.00
2023-05-04T22:28:20.804Z,95799.00
2023-05-04T22:32:25.012Z,95798.00
2023-05-04T22:36:27.839Z,95793.00
2023-05-04T22:40:30.737Z,95794.00
2023-05-04T22:44:34.753Z,95800.00
2023-05-04T22:48:38.939Z,95798.00
2023-05-04T22:52:41.936Z,95800.00
2023-05-04T22:56:44.753Z,95801.00
2023-05-04T23:00:47.912Z,95795.00
2023-05-04T23:04:53.081Z,95795.00
2023-05-04T23:08:56.095Z,95807.00
2023-05-04T23:12:58.896Z,95797.00
2023-05-04T23:17:01.743Z,95813.00
2023-05-04T23:21:06.359Z,95804.00
2023-05-04T23:25:09.841Z,95801.00
2023-05-04T23:29:12.632Z,95799.00
2023-05-04T23:33:15.424Z,95801.00
2023-05-04T23:37:19.626Z,95793.00
2023-05-04T23:41:22.441Z,95796.00
2023-05-04T23:45:25.311Z,95793.00
2023-05-04T23:49:28.131Z,95798.00
2023-05-04T23:53:33.606Z,95799.00
2023-05-04T23:57:36.418Z,95789.00
